Time;durP1;ratioP1;P1;durP2;ratioP2;P2;SDS_P1;SDS_P2;PMS_P1;PMS_P2;Temp;Humidity;BMP_temperature;BMP_pressure;BME280_temperature;BME280_humidity;BME280_pressure;Samples;Min_cycle;Max_cycle;Signal;HPM_P1;HPM_P2
2022/12/27 00:01:50;;;;;;;2.22;1.70;;;;;;;11.67;100.00;98865.69;5062562;28;20106;-66
2022/12/27 00:04:16;;;;;;;3.60;2.08;;;;;;;11.50;100.00;98872.06;5060130;28;20052;-66
2022/12/27 00:06:44;;;;;;;4.47;1.73;;;;;;;11.36;100.00;98873.16;5057629;28;20052;-65
2022/12/27 00:09:13;;;;;;;0.80;0.80;;;;;;;11.35;100.00;98868.88;5055139;28;20062;-67
2022/12/27 00:11:39;;;;;;;1.08;1.05;;;;;;;11.43;100.00;98868.72;5059080;28;20049;-65
2022/12/27 00:14:05;;;;;;;1.20;1.10;;;;;;;11.19;100.00;98861.50;5059807;28;20121;-66
2022/12/27 00:16:34;;;;;;;0.80;0.80;;;;;;;11.17;100.00;98882.03;5059860;28;20045;-66
2022/12/27 00:19:00;;;;;;;0.75;0.70;;;;;;;11.10;100.00;98889.88;5061675;28;20048;-65
2022/12/27 00:21:26;;;;;;;0.55;0.55;;;;;;;11.34;100.00;98881.72;5060749;28;20037;-68
2022/12/27 00:23:54;;;;;;;0.68;0.68;;;;;;;11.37;100.00;98897.09;5061682;28;20166;-66
2022/12/27 00:26:29;;;;;;;0.70;0.70;;;;;;;11.27;100.00;98891.28;5057647;28;20580;-66
2022/12/27 00:28:57;;;;;;;0.80;0.80;;;;;;;11.24;100.00;98893.06;5059789;28;20051;-66
2022/12/27 00:31:24;;;;;;;0.98;0.98;;;;;;;11.11;100.00;98891.56;5065502;28;20044;-65
2022/12/27 00:33:53;;;;;;;1.67;1.20;;;;;;;11.10;100.00;98910.41;5060060;28;20036;-65
2022/12/27 00:36:21;;;;;;;0.80;0.70;;;;;;;11.11;100.00;98915.50;5057369;28;20070;-64
2022/12/27 00:38:47;;;;;;;0.60;0.60;;;;;;;11.36;100.00;98921.91;5047585;28;20506;-66
2022/12/27 00:41:14;;;;;;;1.30;0.50;;;;;;;11.31;100.00;98933.13;5059168;28;20402;-65
2022/12/27 00:43:40;;;;;;;1.58;0.60;;;;;;;11.22;100.00;98926.44;5061120;28;20088;-65
2022/12/27 00:46:05;;;;;;;1.17;0.60;;;;;;;11.11;100.00;98930.06;5059732;28;20510;-65
2022/12/27 00:48:31;;;;;;;0.50;0.50;;;;;;;10.95;100.00;98939.69;5058559;28;20052;-64
2022/12/27 00:50:59;;;;;;;0.43;0.43;;;;;;;10.88;100.00;98932.97;5062791;28;20049;-68
2022/12/27 00:53:26;;;;;;;0.70;0.70;;;;;;;11.42;100.00;98956.88;5061985;28;20050;-65
2022/12/27 00:55:51;;;;;;;0.50;0.50;;;;;;;11.65;100.00;98959.06;5048054;28;20064;-67
2022/12/27 00:58:20;;;;;;;1.20;0.70;;;;;;;11.67;100.00;98954.75;5063885;28;20142;-66
2022/12/27 01:00:46;;;;;;;0.60;0.60;;;;;;;11.56;100.00;98941.25;5064875;28;20037;-65
2022/12/27 01:03:13;;;;;;;0.70;0.70;;;;;;;11.44;100.00;98953.44;5060927;28;20036;-66
2022/12/27 01:05:38;;;;;;;0.70;0.70;;;;;;;11.40;100.00;98976.63;5063235;28;20041;-66
2022/12/27 01:08:04;;;;;;;0.60;0.60;;;;;;;11.20;100.00;98953.00;5064547;28;20098;-66
2022/12/27 01:10:30;;;;;;;0.50;0.50;;;;;;;11.26;100.00;99009.34;5065417;28;20071;-66
2022/12/27 01:12:59;;;;;;;0.40;0.40;;;;;;;11.30;100.00;98985.34;5067245;28;20152;-65
2022/12/27 01:15:25;;;;;;;0.43;0.43;;;;;;;11.15;100.00;98995.84;5065555;28;20171;-67
2022/12/27 01:17:50;;;;;;;0.65;0.65;;;;;;;11.29;100.00;98994.75;5060545;28;20044;-66
2022/12/27 01:20:16;;;;;;;0.40;0.40;;;;;;;11.27;100.00;98999.06;5063364;28;20601;-66
2022/12/27 01:22:42;;;;;;;0.57;0.57;;;;;;;11.25;100.00;98989.69;5064453;28;20024;-65
2022/12/27 01:25:08;;;;;;;0.63;0.63;;;;;;;11.12;100.00;98986.47;5053461;28;20116;-66
2022/12/27 01:27:33;;;;;;;0.50;0.50;;;;;;;11.18;100.00;99001.78;5064368;28;20134;-65
2022/12/27 01:29:59;;;;;;;0.40;0.40;;;;;;;11.17;100.00;99007.78;5065227;28;20032;-70
2022/12/27 01:32:25;;;;;;;0.45;0.45;;;;;;;11.14;100.00;99005.25;5061942;28;20040;-67
2022/12/27 01:34:50;;;;;;;0.50;0.50;;;;;;;11.12;100.00;99011.31;5063951;28;20076;-67
2022/12/27 01:37:16;;;;;;;0.63;0.63;;;;;;;11.13;100.00;99024.09;5062837;28;20047;-65
2022/12/27 01:39:45;;;;;;;0.30;0.30;;;;;;;11.12;100.00;99019.00;5064761;28;20045;-67
2022/12/27 01:45:01;;;;;;;0.50;0.50;;;;;;;11.13;100.00;99021.53;5063225;28;20049;-67
2022/12/27 01:47:51;;;;;;;0.55;0.55;;;;;;;10.91;100.00;99023.56;5063003;28;20041;-66
2022/12/27 01:50:26;;;;;;;0.50;0.50;;;;;;;10.82;100.00;99033.94;5064905;28;20036;-65
2022/12/27 01:52:57;;;;;;;;;;;;;;;10.80;100.00;99032.28;5063899;28;20556;-66
2022/12/27 01:55:45;;;;;;;0.50;0.50;;;;;;;10.78;100.00;99045.09;5065519;28;19984;-66
2022/12/27 01:58:17;;;;;;;0.47;0.47;;;;;;;10.71;100.00;99020.41;5064770;28;20085;-65
2022/12/27 02:00:44;;;;;;;0.45;0.45;;;;;;;10.80;100.00;99045.94;5065961;28;20101;-68
2022/12/27 02:03:14;;;;;;;0.70;0.70;;;;;;;10.68;100.00;99035.84;5063955;28;20037;-66
2022/12/27 02:05:43;;;;;;;1.10;1.00;;;;;;;10.71;100.00;99066.56;5062330;28;20039;-67
2022/12/27 02:08:21;;;;;;;0.63;0.60;;;;;;;10.66;100.00;99068.34;5061238;28;20967;-65
2022/12/27 02:10:48;;;;;;;0.70;0.70;;;;;;;10.63;100.00;99057.28;5053606;28;20050;-67
2022/12/27 02:13:14;;;;;;;0.50;0.50;;;;;;;10.59;100.00;99068.44;5063194;28;20055;-68
2022/12/27 02:15:40;;;;;;;0.50;0.50;;;;;;;10.59;100.00;99061.59;5056957;28;20978;-66
2022/12/27 02:18:06;;;;;;;0.98;0.73;;;;;;;10.47;100.00;99061.75;5059339;28;20036;-65
2022/12/27 02:20:46;;;;;;;0.70;0.70;;;;;;;10.42;100.00;99073.78;5061239;28;20040;-65
2022/12/27 02:26:34;;;;;;;0.40;0.40;;;;;;;10.40;100.00;99070.34;5061940;28;20458;-65
2022/12/27 02:29:34;;;;;;;0.50;0.50;;;;;;;10.13;100.00;99057.84;5060350;28;20032;-68
2022/12/27 02:32:07;;;;;;;0.73;0.73;;;;;;;10.22;100.00;99080.84;5063925;28;20135;-66
2022/12/27 02:34:56;;;;;;;0.70;0.70;;;;;;;10.19;100.00;99079.13;5062221;28;20037;-65
2022/12/27 02:37:26;;;;;;;1.05;1.05;;;;;;;10.14;100.00;99072.34;5061172;28;20042;-66
2022/12/27 02:39:55;;;;;;;0.60;0.60;;;;;;;10.04;100.00;99076.69;5061389;28;20049;-65
2022/12/27 02:54:31;;;;;;;0.70;0.70;;;;;;;9.94;100.00;99096.41;5065277;28;20056;-66
2022/12/27 02:57:36;;;;;;;0.70;0.70;;;;;;;9.97;100.00;99110.94;5059038;28;20304;-64
2022/12/27 03:03:19;;;;;;;0.50;0.50;;;;;;;10.04;100.00;99108.28;5021699;28;20076;-66
2022/12/27 03:09:06;;;;;;;0.40;0.40;;;;;;;10.06;100.00;99111.69;5005569;28;20124;-65
2022/12/27 03:17:42;;;;;;;0.63;0.63;;;;;;;9.98;100.00;99112.59;5023244;28;20045;-68
2022/12/27 03:25:52;;;;;;;0.60;0.60;;;;;;;9.99;100.00;99127.97;5021778;28;20041;-67
2022/12/27 03:34:30;;;;;;;0.45;0.45;;;;;;;10.01;100.00;99143.34;5021952;28;20064;-66
2022/12/27 03:39:53;;;;;;;0.60;0.60;;;;;;;10.10;100.00;99181.66;5043381;28;20427;-66
2022/12/27 03:45:09;;;;;;;0.60;0.60;;;;;;;10.03;100.00;99190.25;5061644;28;20054;-67
2022/12/27 03:47:47;;;;;;;0.60;0.60;;;;;;;9.99;100.00;99186.03;5061311;28;20032;-68
2022/12/27 03:50:39;;;;;;;0.60;0.60;;;;;;;9.95;100.00;99187.78;5062879;28;20032;-67
2022/12/27 03:53:27;;;;;;;0.70;0.70;;;;;;;9.93;100.00;99199.72;5059985;28;20102;-67
2022/12/27 03:55:53;;;;;;;0.70;0.70;;;;;;;9.73;100.00;99186.22;5065476;28;20064;-72
2022/12/27 03:58:21;;;;;;;0.60;0.60;;;;;;;9.84;100.00;99214.31;5062526;28;20116;-68
2022/12/27 04:00:47;;;;;;;0.82;0.60;;;;;;;9.85;100.00;99216.84;5070730;28;20063;-71
2022/12/27 04:03:16;;;;;;;0.90;0.70;;;;;;;9.78;100.00;99222.03;5061691;28;20056;-70
2022/12/27 04:05:41;;;;;;;0.77;0.55;;;;;;;9.77;100.00;99208.38;5064141;28;20434;-72
2022/12/27 04:35:34;;;;;;;0.60;0.60;;;;;;;9.71;100.00;99256.22;5062728;28;20457;-67
2022/12/27 04:38:00;;;;;;;1.17;1.15;;;;;;;9.72;100.00;99238.28;5060173;28;20035;-66
2022/12/27 04:57:03;;;;;;;0.52;0.52;;;;;;;9.62;100.00;99265.66;5055343;28;20403;-65
2022/12/27 05:02:17;;;;;;;0.68;0.68;;;;;;;9.71;100.00;99286.94;5060801;28;20094;-67
2022/12/27 05:04:44;;;;;;;0.70;0.70;;;;;;;9.57;99.92;99275.06;5060261;28;20487;-68
2022/12/27 05:15:28;;;;;;;0.68;0.68;;;;;;;9.45;100.00;99290.47;5063380;28;20046;-65
2022/12/27 05:17:55;;;;;;;0.70;0.70;;;;;;;9.30;99.44;99270.06;5062450;28;20044;-67
2022/12/27 05:20:21;;;;;;;1.65;0.70;;;;;;;9.41;99.14;99319.50;5062380;28;20464;-67
2022/12/27 05:25:35;;;;;;;0.70;0.70;;;;;;;9.25;100.00;99324.66;5059560;28;20671;-67
2022/12/27 05:28:06;;;;;;;0.60;0.60;;;;;;;9.14;100.00;99309.34;5061171;28;20033;-67
2022/12/27 05:30:34;;;;;;;0.95;0.80;;;;;;;9.14;100.00;99335.78;5062115;28;20142;-66
2022/12/27 05:32:59;;;;;;;0.77;0.70;;;;;;;9.05;100.00;99335.78;5060240;28;20029;-65
2022/12/27 05:35:25;;;;;;;0.70;0.70;;;;;;;8.93;100.00;99314.50;5062332;28;20120;-65
2022/12/27 05:37:53;;;;;;;0.68;0.68;;;;;;;8.94;100.00;99332.41;5060503;28;20082;-65
2022/12/27 05:40:20;;;;;;;0.70;0.70;;;;;;;8.89;100.00;99348.59;5059813;28;20103;-66
2022/12/27 05:42:46;;;;;;;0.57;0.57;;;;;;;8.79;100.00;99347.72;5061640;28;20052;-66
2022/12/27 05:45:15;;;;;;;0.80;0.80;;;;;;;8.93;100.00;99363.94;5064528;28;20036;-66
2022/12/27 05:47:40;;;;;;;0.70;0.70;;;;;;;8.80;100.00;99369.91;5065629;28;20033;-66
2022/12/27 05:50:07;;;;;;;2.23;0.90;;;;;;;8.69;100.00;99394.63;5066501;28;20054;-66
2022/12/27 05:52:35;;;;;;;2.17;0.80;;;;;;;8.76;98.37;99382.69;5064232;28;20490;-66
2022/12/27 05:55:04;;;;;;;0.80;0.80;;;;;;;8.66;100.00;99382.66;5063784;28;20484;-67
2022/12/27 05:57:29;;;;;;;1.00;0.90;;;;;;;8.42;100.00;99369.03;5063943;28;20067;-66
2022/12/27 05:59:56;;;;;;;0.97;0.80;;;;;;;8.41;100.00;99401.38;5063854;28;20068;-65
2022/12/27 06:02:22;;;;;;;0.73;0.73;;;;;;;8.26;100.00;99417.50;5065996;28;20045;-66
2022/12/27 06:04:47;;;;;;;0.60;0.60;;;;;;;8.12;100.00;99442.13;5061085;28;20459;-66
2022/12/27 06:07:13;;;;;;;0.50;0.50;;;;;;;7.96;100.00;99435.28;5056361;28;20048;-66
2022/12/27 06:09:39;;;;;;;0.50;0.50;;;;;;;7.93;100.00;99445.47;5056790;28;20049;-66
2022/12/27 06:12:08;;;;;;;0.50;0.50;;;;;;;7.73;100.00;99440.25;5065266;28;20037;-67
2022/12/27 06:14:34;;;;;;;0.67;0.67;;;;;;;7.72;100.00;99453.03;5064076;28;20363;-66
2022/12/27 06:16:59;;;;;;;0.50;0.50;;;;;;;7.65;100.00;99446.16;5059147;28;20507;-66
2022/12/27 06:19:25;;;;;;;0.50;0.50;;;;;;;7.70;100.00;99458.13;5059649;28;20097;-67
2022/12/27 06:21:54;;;;;;;0.50;0.50;;;;;;;7.64;100.00;99477.63;5065463;28;20028;-66
2022/12/27 06:24:22;;;;;;;0.93;0.67;;;;;;;7.55;100.00;99488.66;5063217;28;20063;-66
2022/12/27 06:26:50;;;;;;;1.33;0.73;;;;;;;7.40;100.00;99480.88;5067864;28;20048;-67
2022/12/27 06:29:16;;;;;;;2.07;0.50;;;;;;;7.32;100.00;99487.63;5061980;28;20352;-66
2022/12/27 06:31:41;;;;;;;0.50;0.50;;;;;;;7.26;100.00;99519.03;5064967;28;20602;-66
2022/12/27 06:34:09;;;;;;;2.63;0.90;;;;;;;7.27;100.00;99525.84;5060498;28;20131;-67
2022/12/27 06:36:35;;;;;;;0.60;0.60;;;;;;;7.23;100.00;99531.75;5057325;28;20041;-66
2022/12/27 06:39:00;;;;;;;1.03;0.80;;;;;;;7.21;100.00;99541.06;5063164;28;20118;-66
2022/12/27 06:41:29;;;;;;;0.97;0.80;;;;;;;7.11;100.00;99564.78;5057236;28;20088;-66
2022/12/27 06:43:56;;;;;;;1.10;0.87;;;;;;;6.96;100.00;99556.97;5060515;28;20060;-66
2022/12/27 06:46:26;;;;;;;1.27;0.63;;;;;;;6.88;100.00;99543.31;5060391;28;20455;-65
2022/12/27 06:48:51;;;;;;;2.17;0.90;;;;;;;6.94;100.00;99591.81;5062701;28;20494;-66
2022/12/27 06:51:19;;;;;;;0.70;0.70;;;;;;;6.87;100.00;99578.13;5061892;28;20628;-66
2022/12/27 06:53:46;;;;;;;1.93;1.10;;;;;;;6.83;100.00;99629.06;5064074;28;20055;-66
2022/12/27 06:56:18;;;;;;;1.27;1.27;;;;;;;6.71;100.00;99589.00;5061980;28;20051;-66
2022/12/27 06:58:45;;;;;;;0.90;0.77;;;;;;;6.64;100.00;99571.94;5058832;28;20036;-65
2022/12/27 07:01:23;;;;;;;0.53;0.50;;;;;;;6.68;100.00;99608.50;5057773;28;20181;-66
2022/12/27 07:03:57;;;;;;;0.90;0.90;;;;;;;6.58;100.00;99614.28;5061854;28;20527;-65
2022/12/27 07:06:26;;;;;;;0.60;0.60;;;;;;;6.49;100.00;99632.91;5061340;28;20416;-66
2022/12/27 07:08:56;;;;;;;1.20;0.73;;;;;;;6.46;100.00;99614.13;5064108;28;20056;-64
2022/12/27 07:11:25;;;;;;;0.80;0.80;;;;;;;6.41;100.00;99621.72;5048333;28;20048;-65
2022/12/27 07:13:53;;;;;;;2.73;0.77;;;;;;;6.37;100.00;99636.09;5054668;28;20179;-65
2022/12/27 07:16:22;;;;;;;0.73;0.70;;;;;;;6.34;100.00;99623.34;5060128;28;20042;-64
2022/12/27 07:18:49;;;;;;;1.27;1.17;;;;;;;6.48;100.00;99640.50;5061658;28;20284;-68
2022/12/27 07:21:19;;;;;;;0.70;0.70;;;;;;;6.26;100.00;99622.38;5060811;28;20067;-65
2022/12/27 07:23:45;;;;;;;0.80;0.80;;;;;;;6.38;100.00;99642.91;5061643;28;20044;-64
2022/12/27 07:26:19;;;;;;;2.73;0.93;;;;;;;6.31;100.00;99650.47;5057100;28;20198;-64
2022/12/27 07:28:46;;;;;;;0.80;0.80;;;;;;;6.34;100.00;99670.88;5058105;28;20190;-65
2022/12/27 07:31:17;;;;;;;0.93;0.87;;;;;;;6.17;100.00;99642.63;5060974;28;20045;-64
2022/12/27 07:33:44;;;;;;;0.77;0.50;;;;;;;6.31;100.00;99658.97;5060854;28;20679;-63
2022/12/27 07:36:15;;;;;;;2.40;0.80;;;;;;;6.09;100.00;99648.41;5063161;28;20079;-64
2022/12/27 07:38:41;;;;;;;0.80;0.80;;;;;;;6.16;100.00;99668.91;5058925;28;20052;-64
2022/12/27 07:41:09;;;;;;;0.70;0.70;;;;;;;6.21;100.00;99661.31;5062961;28;20047;-65
2022/12/27 07:43:35;;;;;;;0.67;0.67;;;;;;;6.25;100.00;99684.31;5061174;28;20518;-64
2022/12/27 07:46:05;;;;;;;0.40;0.40;;;;;;;6.27;100.00;99677.56;5060330;28;20127;-64
2022/12/27 07:48:38;;;;;;;0.70;0.70;;;;;;;6.29;100.00;99686.06;5061096;28;20047;-65
2022/12/27 07:51:04;;;;;;;2.63;0.80;;;;;;;6.31;100.00;99686.09;5059359;28;20047;-64
2022/12/27 07:53:30;;;;;;;1.40;0.90;;;;;;;6.33;100.00;99720.06;5061176;28;20602;-64
2022/12/27 07:55:56;;;;;;;1.30;0.93;;;;;;;6.31;100.00;99714.13;5061870;28;20109;-64
2022/12/27 07:58:21;;;;;;;3.67;1.30;;;;;;;6.18;100.00;99700.34;5060975;28;20122;-66
2022/12/27 08:00:50;;;;;;;2.23;1.07;;;;;;;6.30;100.00;99720.03;5062024;28;20059;-64
2022/12/27 08:03:17;;;;;;;1.00;0.90;;;;;;;6.37;100.00;99720.16;5064116;28;20041;-64
2022/12/27 08:05:48;;;;;;;1.00;0.90;;;;;;;6.29;100.00;99708.13;5053705;28;20040;-63
2022/12/27 08:08:18;;;;;;;0.83;0.80;;;;;;;6.31;100.00;99726.84;5058472;28;20321;-66
2022/12/27 08:10:47;;;;;;;1.17;0.87;;;;;;;6.24;100.00;99737.75;5059411;28;20442;-63
2022/12/27 08:13:13;;;;;;;1.00;0.80;;;;;;;6.13;100.00;99709.59;5060028;28;20128;-64
2022/12/27 08:15:41;;;;;;;0.70;0.70;;;;;;;6.32;100.00;99737.03;5061772;28;20741;-65
2022/12/27 08:18:07;;;;;;;2.27;0.70;;;;;;;6.34;100.00;99722.66;5062298;28;20048;-63
2022/12/27 08:20:34;;;;;;;1.57;0.70;;;;;;;6.43;100.00;99738.09;5060022;28;20138;-64
2022/12/27 08:23:02;;;;;;;0.70;0.70;;;;;;;6.41;100.00;99747.38;5050157;28;20033;-64
2022/12/27 08:25:31;;;;;;;1.57;1.00;;;;;;;6.51;100.00;99755.16;5058692;28;20134;-71
2022/12/27 08:28:05;;;;;;;0.80;0.77;;;;;;;6.39;100.00;99741.41;5060953;28;20040;-64
2022/12/27 08:30:30;;;;;;;0.70;0.70;;;;;;;6.31;100.00;99731.94;5060414;28;20044;-64
2022/12/27 08:32:56;;;;;;;1.87;0.90;;;;;;;6.46;100.00;99754.22;5060494;28;20502;-64
2022/12/27 08:35:21;;;;;;;0.60;0.60;;;;;;;6.47;100.00;99764.44;5058382;28;20292;-64
2022/12/27 08:37:47;;;;;;;1.93;0.80;;;;;;;6.49;100.00;99744.13;5062554;28;20055;-63
2022/12/27 08:40:13;;;;;;;0.90;0.70;;;;;;;6.49;100.00;99767.91;5059819;28;20518;-63
2022/12/27 08:42:39;;;;;;;1.03;0.80;;;;;;;6.47;100.00;99773.78;5061493;28;20052;-68
2022/12/27 08:45:08;;;;;;;2.73;0.73;;;;;;;6.48;100.00;99762.75;5065295;28;20165;-64
2022/12/27 08:47:33;;;;;;;1.50;1.40;;;;;;;6.50;100.00;99786.56;5059923;28;20535;-66
2022/12/27 08:49:59;;;;;;;2.23;1.43;;;;;;;6.59;100.00;99786.72;5066501;28;20051;-66
2022/12/27 08:52:30;;;;;;;4.07;0.80;;;;;;;6.61;98.05;99797.78;5062240;28;20040;-65
2022/12/27 08:54:56;;;;;;;0.57;0.57;;;;;;;6.58;97.28;99790.06;5061108;28;20044;-65
2022/12/27 08:57:21;;;;;;;1.10;0.70;;;;;;;6.51;95.82;99771.31;5060737;28;20099;-65
2022/12/27 08:59:47;;;;;;;1.07;0.80;;;;;;;6.76;96.14;99798.00;5060177;28;20053;-65
2022/12/27 09:02:13;;;;;;;1.70;0.80;;;;;;;6.81;96.76;99796.41;5061225;28;20490;-62
2022/12/27 09:04:39;;;;;;;0.70;0.70;;;;;;;6.47;98.28;99767.00;5062078;28;20511;-64
2022/12/27 09:07:07;;;;;;;0.50;0.50;;;;;;;6.82;96.79;99805.75;5061448;28;20472;-64
2022/12/27 09:09:33;;;;;;;1.00;0.90;;;;;;;6.96;94.12;99801.69;5061111;28;20132;-64
2022/12/27 09:11:58;;;;;;;7.60;2.23;;;;;;;7.07;92.73;99817.16;5062063;28;20041;-64
2022/12/27 09:14:24;;;;;;;1.57;0.80;;;;;;;7.12;88.36;99813.84;5063603;28;20422;-65
2022/12/27 09:16:59;;;;;;;0.80;0.70;;;;;;;7.22;81.30;99812.25;5062881;28;20041;-64
2022/12/27 09:19:27;;;;;;;1.83;0.90;;;;;;;7.15;77.40;99820.66;5062315;28;20330;-64
2022/12/27 09:21:56;;;;;;;0.80;0.80;;;;;;;7.11;75.51;99814.69;5060938;28;20144;-64
2022/12/27 09:24:24;;;;;;;1.17;0.50;;;;;;;7.27;75.08;99825.94;5066310;28;20036;-66
2022/12/27 09:26:50;;;;;;;0.60;0.50;;;;;;;7.22;75.41;99827.56;5062050;28;20040;-67
2022/12/27 09:29:16;;;;;;;1.97;0.73;;;;;;;7.07;70.10;99807.81;5060566;28;20047;-63
2022/12/27 09:31:42;;;;;;;1.23;0.67;;;;;;;7.16;66.72;99830.91;5060970;28;20496;-64
2022/12/27 09:34:09;;;;;;;0.50;0.50;;;;;;;7.17;67.18;99806.25;5067907;28;20102;-63
2022/12/27 09:36:37;;;;;;;0.80;0.80;;;;;;;7.23;64.57;99827.59;5062781;28;20037;-64
2022/12/27 09:39:03;;;;;;;1.03;0.50;;;;;;;7.29;64.47;99835.34;5062837;28;20097;-64
2022/12/27 09:41:42;;;;;;;1.37;0.80;;;;;;;7.37;64.84;99824.38;5062570;28;20040;-64
2022/12/27 09:44:17;;;;;;;1.40;0.50;;;;;;;7.21;59.90;99810.56;5062401;28;20048;-63
2022/12/27 09:47:17;;;;;;;1.13;0.70;;;;;;;7.26;64.22;99819.13;5064615;28;20052;-65
2022/12/27 09:50:02;;;;;;;0.90;0.67;;;;;;;7.27;70.71;99808.94;5061219;28;20049;-65
2022/12/27 09:52:47;;;;;;;1.20;0.90;;;;;;;7.52;73.55;99837.31;5063343;28;20616;-65
2022/12/27 09:55:34;;;;;;;0.70;0.70;;;;;;;7.20;76.15;99834.34;5059650;28;20475;-64
2022/12/27 09:58:22;;;;;;;0.80;0.70;;;;;;;7.23;77.86;99842.91;5053949;28;20282;-68
2022/12/27 10:00:51;;;;;;;0.70;0.60;;;;;;;6.97;78.15;99825.50;5059289;28;20045;-64
2022/12/27 10:03:22;;;;;;;0.60;0.60;;;;;;;7.00;77.69;99828.94;5061592;28;20064;-64
2022/12/27 10:06:10;;;;;;;0.70;0.50;;;;;;;6.93;78.72;99799.13;5061896;28;20620;-64
2022/12/27 10:09:00;;;;;;;1.27;0.80;;;;;;;6.96;76.83;99834.00;5061560;28;20932;-65
2022/12/27 10:12:05;;;;;;;0.70;0.57;;;;;;;6.98;76.96;99845.06;4995082;28;20058;-65
2022/12/27 10:14:58;;;;;;;0.70;0.60;;;;;;;6.97;75.85;99826.38;5004824;28;20535;-63
2022/12/27 10:17:52;;;;;;;0.93;0.60;;;;;;;7.15;76.33;99833.41;5006086;28;20500;-66
2022/12/27 10:20:54;;;;;;;0.83;0.60;;;;;;;7.07;74.54;99820.56;5005012;28;20099;-67
2022/12/27 10:23:28;;;;;;;2.30;0.50;;;;;;;6.77;71.07;99807.38;5005102;28;20058;-66
2022/12/27 10:26:00;;;;;;;0.53;0.53;;;;;;;6.91;69.40;99828.84;5005773;28;20042;-71
2022/12/27 10:28:38;;;;;;;1.27;0.50;;;;;;;6.85;69.04;99827.06;5005321;28;20084;-66
2022/12/27 10:31:04;;;;;;;0.80;0.63;;;;;;;6.90;69.02;99834.75;4989213;28;20049;-67
2022/12/27 10:33:34;;;;;;;1.03;0.97;;;;;;;7.03;66.93;99849.41;5004802;28;20045;-66
2022/12/27 10:36:08;;;;;;;0.70;0.70;;;;;;;7.05;65.02;99834.13;5005417;28;20125;-67
2022/12/27 10:38:34;;;;;;;0.60;0.60;;;;;;;7.00;63.78;99840.88;5005568;28;20040;-67
2022/12/27 10:41:18;;;;;;;1.30;0.60;;;;;;;7.03;65.76;99830.69;5004248;28;20088;-67
2022/12/27 10:43:49;;;;;;;0.77;0.67;;;;;;;6.95;64.06;99837.38;5006212;28;20085;-67
2022/12/27 10:46:19;;;;;;;1.27;0.83;;;;;;;7.17;64.61;99852.16;5004763;28;20190;-67
2022/12/27 10:49:00;;;;;;;2.20;0.80;;;;;;;7.17;64.72;99845.34;5030542;28;20419;-67
2022/12/27 10:51:34;;;;;;;2.20;0.90;;;;;;;7.17;64.43;99850.44;5063539;28;20036;-67
2022/12/27 10:54:03;;;;;;;1.20;0.70;;;;;;;7.29;61.80;99824.28;5061336;28;20883;-67
2022/12/27 10:56:43;;;;;;;0.93;0.87;;;;;;;7.46;59.14;99829.59;5064316;28;20060;-65
2022/12/27 10:59:27;;;;;;;1.57;1.47;;;;;;;7.74;56.92;99816.31;5066945;28;20041;-67
2022/12/27 11:01:58;;;;;;;3.00;1.20;;;;;;;8.06;55.24;99842.22;5077047;28;20036;-68
2022/12/27 11:04:26;;;;;;;2.77;1.17;;;;;;;7.75;53.59;99829.09;5058379;28;20118;-67
2022/12/27 11:07:00;;;;;;;0.50;0.50;;;;;;;7.80;54.67;99829.16;5062880;28;20030;-65
2022/12/27 11:09:43;;;;;;;0.70;0.70;;;;;;;7.50;55.35;99800.72;5063662;28;20045;-65
2022/12/27 11:12:27;;;;;;;0.80;0.80;;;;;;;7.69;56.82;99820.50;5065626;28;20040;-63
2022/12/27 11:15:14;;;;;;;1.20;0.83;;;;;;;7.49;59.14;99817.72;5061583;28;20059;-59
2022/12/27 11:17:41;;;;;;;0.97;0.70;;;;;;;7.68;62.11;99819.66;5060473;28;20070;-64
2022/12/27 11:20:47;;;;;;;3.67;0.73;;;;;;;7.68;61.58;99803.50;5061527;28;20032;-66
2022/12/27 11:23:15;;;;;;;;;;;;;;;7.55;65.62;99814.41;5058047;28;20049;-61
2022/12/27 11:26:02;;;;;;;0.80;0.80;;;;;;;7.37;70.77;99788.66;5063639;28;19917;-69
2022/12/27 11:28:32;;;;;;;0.60;0.60;;;;;;;7.48;68.49;99804.94;5061152;28;20064;-61
2022/12/27 11:31:05;;;;;;;1.67;0.93;;;;;;;7.57;69.30;99805.06;5060033;28;20080;-60
2022/12/27 11:33:38;;;;;;;0.87;0.80;;;;;;;7.55;71.77;99781.22;5059221;28;20067;-61
2022/12/27 11:36:24;;;;;;;0.90;0.80;;;;;;;7.59;72.88;99798.28;5057231;28;20058;-61
2022/12/27 11:38:49;;;;;;;;;;;;;;;7.64;73.44;99794.06;5056744;28;20044;-62
2022/12/27 11:41:50;;;;;;;2.10;1.67;;;;;;;7.63;75.13;99797.47;5055790;28;19920;-62
2022/12/27 11:44:27;;;;;;;2.63;0.80;;;;;;;7.40;78.82;99792.09;5056892;28;20484;-62
2022/12/27 11:47:01;;;;;;;1.60;0.90;;;;;;;7.47;79.06;99793.03;5058774;28;20044;-61
2022/12/27 11:49:35;;;;;;;1.73;0.80;;;;;;;7.59;77.80;99788.94;5064918;28;20123;-62
2022/12/27 11:52:14;;;;;;;1.43;0.77;;;;;;;7.48;78.92;99779.44;5063792;28;20048;-61
2022/12/27 11:54:45;;;;;;;2.37;0.93;;;;;;;7.41;80.87;99773.41;5063060;28;20164;-61
2022/12/27 11:57:37;;;;;;;0.83;0.80;;;;;;;7.28;81.28;99744.34;5065223;28;20111;-61
2022/12/27 12:00:14;;;;;;;1.47;1.13;;;;;;;7.48;81.70;99764.13;5059291;28;20040;-61
2022/12/27 12:02:58;;;;;;;0.63;0.63;;;;;;;7.47;79.80;99747.94;5060603;28;20041;-61
2022/12/27 12:06:11;;;;;;;1.83;0.73;;;;;;;7.53;79.27;99765.03;5059897;28;20403;-61
2022/12/27 12:08:59;;;;;;;0.90;0.90;;;;;;;7.66;76.53;99759.22;4985126;28;20137;-62
2022/12/27 12:11:59;;;;;;;1.03;0.80;;;;;;;7.64;75.97;99766.84;4985282;28;20042;-64
2022/12/27 12:14:47;;;;;;;0.97;0.90;;;;;;;7.77;76.76;99761.03;4902548;29;20221;-64
2022/12/27 12:17:36;;;;;;;1.10;0.77;;;;;;;7.72;76.37;99760.13;4901842;29;20086;-62
2022/12/27 12:20:45;;;;;;;0.60;0.60;;;;;;;7.69;75.43;99777.13;4902662;29;20078;-62
2022/12/27 12:23:40;;;;;;;1.03;0.77;;;;;;;7.67;75.54;99735.44;4903643;29;20536;-62
2022/12/27 12:26:21;;;;;;;1.47;0.77;;;;;;;7.65;76.18;99752.41;4902965;29;20060;-62
2022/12/27 12:29:09;;;;;;;2.13;0.93;;;;;;;7.52;77.16;99756.50;4901692;29;20263;-60
2022/12/27 12:31:41;;;;;;;0.60;0.60;;;;;;;7.62;78.05;99755.78;4903631;29;20059;-62
2022/12/27 12:34:44;;;;;;;0.60;0.60;;;;;;;7.52;78.04;99761.63;4904229;29;20135;-62
2022/12/27 12:37:15;;;;;;;0.33;0.33;;;;;;;7.47;78.13;99742.84;4903550;29;20098;-62
2022/12/27 12:39:59;;;;;;;0.97;0.63;;;;;;;7.46;78.69;99740.28;4955282;28;20511;-61
2022/12/27 12:42:44;;;;;;;2.17;0.60;;;;;;;7.47;79.01;99750.50;4985521;28;20042;-61
2022/12/27 12:45:34;;;;;;;1.23;0.67;;;;;;;7.49;79.22;99745.44;4984684;28;20061;-62
2022/12/27 12:48:37;;;;;;;0.73;0.70;;;;;;;7.52;78.26;99750.56;4988018;28;20433;-61
2022/12/27 12:51:40;;;;;;;1.50;0.70;;;;;;;7.49;78.69;99751.38;5016703;28;20240;-61
2022/12/27 12:54:11;;;;;;;1.43;0.73;;;;;;;7.33;78.43;99745.25;5063883;28;20037;-62
2022/12/27 12:56:43;;;;;;;0.70;0.70;;;;;;;7.31;80.46;99740.97;5066426;28;20445;-62
2022/12/27 12:59:48;;;;;;;1.50;0.80;;;;;;;7.33;81.05;99740.16;5063694;28;20079;-62
2022/12/27 13:02:55;;;;;;;4.10;0.73;;;;;;;7.28;81.46;99729.03;5065721;28;20047;-62
2022/12/27 13:05:39;;;;;;;0.80;0.80;;;;;;;7.25;81.57;99736.66;5064073;28;20135;-62
2022/12/27 13:08:42;;;;;;;1.60;0.70;;;;;;;7.18;81.28;99739.97;5066149;28;20064;-62
2022/12/27 13:11:30;;;;;;;1.97;0.60;;;;;;;7.20;81.10;99740.84;5058103;28;20041;-62
2022/12/27 13:13:58;;;;;;;3.07;0.77;;;;;;;7.19;81.20;99739.13;5063878;28;20595;-62
2022/12/27 13:16:33;;;;;;;1.40;0.70;;;;;;;7.11;80.27;99722.88;5065105;28;20442;-62
2022/12/27 13:19:20;;;;;;;1.10;0.73;;;;;;;7.27;77.99;99745.19;5065606;28;20491;-62
2022/12/27 13:21:58;;;;;;;3.20;0.90;;;;;;;7.27;78.84;99749.41;5066798;28;20048;-60
2022/12/27 13:24:29;;;;;;;0.80;0.67;;;;;;;7.22;78.74;99736.59;5062739;28;20119;-61
2022/12/27 13:27:25;;;;;;;2.07;1.53;;;;;;;7.29;77.68;99742.66;5064841;28;20043;-63
2022/12/27 13:30:22;;;;;;;0.90;0.80;;;;;;;7.35;79.18;99738.47;5027183;28;20052;-61
2022/12/27 13:33:11;;;;;;;2.00;0.93;;;;;;;7.11;78.91;99715.22;5063525;28;20709;-61
2022/12/27 13:35:43;;;;;;;1.43;0.70;;;;;;;7.26;78.28;99733.25;5062939;28;20473;-61
2022/12/27 13:38:33;;;;;;;0.63;0.63;;;;;;;7.13;78.24;99736.50;5059270;28;20040;-63
2022/12/27 13:41:19;;;;;;;0.53;0.50;;;;;;;7.16;78.89;99744.19;5062050;28;20127;-62
2022/12/27 13:44:00;;;;;;;2.63;0.67;;;;;;;7.01;79.81;99735.47;5061566;28;20358;-62
2022/12/27 13:47:13;;;;;;;1.20;1.10;;;;;;;7.02;77.76;99735.50;5062543;28;20055;-62
2022/12/27 13:50:13;;;;;;;1.40;1.00;;;;;;;6.94;80.76;99739.66;5065069;28;20109;-61
2022/12/27 13:52:54;;;;;;;1.67;1.10;;;;;;;6.85;80.64;99739.53;5063902;28;20479;-64